Time;durP1;ratioP1;P1;durP2;ratioP2;P2;SDS_P1;SDS_P2;PMS_P1;PMS_P2;Temp;Humidity;BMP_temperature;BMP_pressure;BME280_temperature;BME280_humidity;BME280_pressure;Samples;Min_cycle;Max_cycle;Signal;HPM_P1;HPM_P2
2023/01/16 00:01:53;;;;;;;;;;;;;;;8.35;70.29;99809.41;5382636;32;33808;-77
2023/01/16 00:04:55;;;;;;;;;;;;;;;8.71;68.80;99814.12;5413089;32;33526;-78
2023/01/16 00:07:58;;;;;;;;;;;;;;;9.05;68.80;99810.09;5395627;32;33542;-76
2023/01/16 00:11:00;;;;;;;;;;;;;;;9.18;68.24;99803.41;5411636;32;34015;-77
2023/01/16 00:14:02;;;;;;;;;;;;;;;9.43;67.15;99795.34;5404088;32;32477;-78
2023/01/16 00:17:04;;;;;;;;;;;;;;;9.09;68.36;99794.19;5401396;32;34287;-77
2023/01/16 00:20:09;;;;;;;;;;;;;;;9.64;66.43;99804.88;5418458;32;34751;-77
2023/01/16 00:23:11;;;;;;;;;;;;;;;9.75;65.88;99804.41;5388852;32;33954;-78
2023/01/16 00:26:13;;;;;;;;;;;;;;;9.30;67.03;99792.41;5417133;32;34056;-78
2023/01/16 00:29:15;;;;;;;;;;;;;;;9.05;68.84;99776.00;5393985;32;34235;-78
2023/01/16 00:32:17;;;;;;;;;;;;;;;9.33;67.54;99788.78;5394740;32;44419;-78
2023/01/16 00:35:19;;;;;;;;;;;;;;;8.71;69.43;99787.06;5408858;32;34469;-77
2023/01/16 00:38:20;;;;;;;;;;;;;;;8.59;70.54;99794.50;5402539;32;34129;-78
2023/01/16 00:41:22;;;;;;;;;;;;;;;8.88;69.40;99780.19;5413100;32;33842;-78
2023/01/16 00:44:24;;;;;;;;;;;;;;;9.50;67.05;99786.28;5406791;32;33126;-77
2023/01/16 00:47:26;;;;;;;;;;;;;;;8.96;68.21;99785.13;5411808;32;34248;-79
2023/01/16 00:50:28;;;;;;;;;;;;;;;8.91;69.05;99773.97;5380321;32;34218;-78
2023/01/16 00:53:30;;;;;;;;;;;;;;;8.76;69.10;99778.09;5404992;32;33914;-78
2023/01/16 00:56:32;;;;;;;;;;;;;;;8.49;70.18;99785.28;5401485;32;33975;-77
2023/01/16 00:59:34;;;;;;;;;;;;;;;8.89;69.85;99778.44;5405332;32;33421;-78
2023/01/16 01:02:36;;;;;;;;;;;;;;;8.51;71.11;99774.78;5429204;32;33698;-79
2023/01/16 01:05:38;;;;;;;;;;;;;;;8.89;70.02;99766.19;5392764;32;33709;-78
2023/01/16 01:08:40;;;;;;;;;;;;;;;9.14;68.62;99771.22;5399240;32;33898;-77
2023/01/16 01:11:42;;;;;;;;;;;;;;;9.97;63.98;99754.41;5391536;32;33234;-76
2023/01/16 01:14:44;;;;;;;;;;;;;;;9.78;64.68;99770.16;5385830;32;872615;-78
2023/01/16 01:17:46;;;;;;;;;;;;;;;9.06;66.92;99765.47;5406688;32;42366;-78
2023/01/16 01:20:48;;;;;;;;;;;;;;;8.74;69.57;99758.09;5411957;32;33496;-79
2023/01/16 01:23:50;;;;;;;;;;;;;;;9.21;67.80;99762.19;5414600;32;33664;-78
2023/01/16 01:26:52;;;;;;;;;;;;;;;9.12;67.80;99757.34;5399182;32;34569;-78
2023/01/16 01:29:54;;;;;;;;;;;;;;;8.75;69.60;99759.81;5422689;32;34588;-78
2023/01/16 01:32:55;;;;;;;;;;;;;;;9.09;68.41;99752.22;5400965;32;33267;-79
2023/01/16 01:35:57;;;;;;;;;;;;;;;8.66;70.26;99758.44;5415785;32;34335;-78
2023/01/16 01:38:59;;;;;;;;;;;;;;;8.48;71.04;99746.06;5411360;32;33797;-78
2023/01/16 01:45:29;;;;;;;;;;;;;;;9.23;68.27;99723.62;5417373;32;44743;-78
2023/01/16 01:48:33;;;;;;;;;;;;;;;9.99;64.48;99742.06;5410397;32;33122;-78
2023/01/16 01:51:37;;;;;;;;;;;;;;;9.55;65.81;99737.09;5381807;32;33667;-79
2023/01/16 01:54:40;;;;;;;;;;;;;;;9.29;67.05;99747.91;5394203;32;34069;-77
2023/01/16 01:57:43;;;;;;;;;;;;;;;8.86;68.27;99750.56;5400304;32;33981;-78
2023/01/16 02:00:45;;;;;;;;;;;;;;;8.31;70.61;99754.59;5419774;32;34210;-77
2023/01/16 02:03:57;;;;;;;;;;;;;;;8.48;70.82;99748.69;5401733;32;47129;-77
2023/01/16 02:07:03;;;;;;;;;;;;;;;8.98;68.54;99735.25;5415627;32;34325;-77
2023/01/16 02:10:18;;;;;;;;;;;;;;;9.07;67.75;99730.47;5400378;32;33071;-78
2023/01/16 02:13:20;;;;;;;;;;;;;;;8.37;70.68;99728.16;5396443;32;43205;-77
2023/01/16 02:20:02;;;;;;;;;;;;;;;8.85;69.16;99724.44;5408304;32;34108;-78
2023/01/16 02:23:25;;;;;;;;;;;;;;;9.08;68.53;99715.56;5416601;32;34480;-77
2023/01/16 02:26:34;;;;;;;;;;;;;;;8.83;69.31;99714.03;5401164;32;34354;-77
2023/01/16 02:29:54;;;;;;;;;;;;;;;9.44;67.61;99698.22;5407948;32;34460;-77
2023/01/16 02:33:03;;;;;;;;;;;;;;;9.21;68.03;99695.78;5416754;32;33674;-78
2023/01/16 02:36:04;;;;;;;;;;;;;;;9.13;68.32;99696.13;5389225;32;33148;-77
2023/01/16 02:39:28;;;;;;;;;;;;;;;9.16;68.64;99688.13;5422298;32;34055;-78
2023/01/16 02:42:33;;;;;;;;;;;;;;;8.74;70.11;99689.97;5395067;32;33748;-78
2023/01/16 02:45:57;;;;;;;;;;;;;;;9.60;67.34;99687.91;5405506;32;33139;-77
2023/01/16 02:49:02;;;;;;;;;;;;;;;9.07;69.26;99671.94;5419394;32;34076;-80
2023/01/16 02:52:25;;;;;;;;;;;;;;;9.19;68.66;99676.62;5373980;32;33757;-77
2023/01/16 02:55:27;;;;;;;;;;;;;;;9.35;68.03;99677.66;5389821;32;33407;-78
2023/01/16 02:58:30;;;;;;;;;;;;;;;8.88;69.47;99677.12;5417433;32;33366;-79
2023/01/16 03:01:33;;;;;;;;;;;;;;;8.87;70.27;99678.06;5399924;32;33346;-78
2023/01/16 03:04:48;;;;;;;;;;;;;;;9.09;68.58;99672.75;5416721;32;33785;-78
2023/01/16 03:07:59;;;;;;;;;;;;;;;8.85;70.24;99682.53;5394323;32;44708;-78
2023/01/16 03:11:07;;;;;;;;;;;;;;;8.86;69.54;99678.97;5411300;32;32720;-78
2023/01/16 03:14:09;;;;;;;;;;;;;;;8.97;68.83;99666.25;5405109;32;33795;-77
2023/01/16 03:17:14;;;;;;;;;;;;;;;8.72;70.61;99647.28;5398140;32;34127;-77
2023/01/16 03:20:28;;;;;;;;;;;;;;;7.80;73.49;99622.28;5408091;32;34653;-77
2023/01/16 03:23:49;;;;;;;;;;;;;;;8.40;72.71;99618.94;5407743;32;34535;-77
2023/01/16 03:26:55;;;;;;;;;;;;;;;8.54;71.88;99626.19;5397005;32;44549;-77
2023/01/16 03:30:07;;;;;;;;;;;;;;;8.59;70.11;99621.63;5407790;32;34018;-79
2023/01/16 03:33:18;;;;;;;;;;;;;;;7.96;72.58;99618.13;5405679;32;34505;-78
2023/01/16 03:36:21;;;;;;;;;;;;;;;8.60;71.11;99604.97;5415157;32;44735;-77
2023/01/16 03:39:24;;;;;;;;;;;;;;;7.82;73.75;99608.22;5404620;32;33568;-78
2023/01/16 03:42:47;;;;;;;;;;;;;;;8.97;69.26;99626.94;5404093;32;33517;-77
2023/01/16 03:46:00;;;;;;;;;;;;;;;7.87;72.98;99613.28;5403801;32;45465;-77
2023/01/16 03:49:03;;;;;;;;;;;;;;;8.03;73.46;99596.00;5405147;32;33765;-77
2023/01/16 03:52:05;;;;;;;;;;;;;;;8.46;71.59;99602.09;5377641;32;33070;-78
2023/01/16 03:55:19;;;;;;;;;;;;;;;8.48;71.47;99597.66;5380857;32;32933;-78
2023/01/16 03:58:27;;;;;;;;;;;;;;;8.44;70.34;99590.84;5407336;32;45540;-77
2023/01/16 04:01:32;;;;;;;;;;;;;;;8.04;72.58;99587.25;5404692;32;33955;-77
2023/01/16 04:04:40;;;;;;;;;;;;;;;7.88;75.27;99573.94;5410753;32;37829;-79
2023/01/16 04:07:47;;;;;;;;;;;;;;;8.11;73.14;99580.88;5412925;32;32761;-78
2023/01/16 04:10:49;;;;;;;;;;;;;;;8.02;73.64;99564.69;5383927;32;45409;-79
2023/01/16 04:13:52;;;;;;;;;;;;;;;7.35;76.73;99567.41;5411836;32;33760;-78
2023/01/16 04:16:54;;;;;;;;;;;;;;;6.92;77.96;99575.09;5403156;32;33642;-78
2023/01/16 04:19:56;;;;;;;;;;;;;;;7.46;77.16;99554.75;5421060;32;34024;-78
2023/01/16 04:22:58;;;;;;;;;;;;;;;8.05;73.91;99554.94;5386837;32;34204;-78
2023/01/16 04:26:00;;;;;;;;;;;;;;;7.17;76.82;99548.06;5385557;32;33218;-77
2023/01/16 04:29:02;;;;;;;;;;;;;;;7.56;76.31;99535.19;5398663;32;33813;-77
2023/01/16 04:32:04;;;;;;;;;;;;;;;7.79;75.89;99526.38;5387725;32;33134;-78
2023/01/16 04:35:06;;;;;;;;;;;;;;;7.62;75.88;99518.38;5402463;32;35242;-77
2023/01/16 04:38:08;;;;;;;;;;;;;;;7.91;75.02;99519.78;5393320;32;33740;-77
2023/01/16 04:41:09;;;;;;;;;;;;;;;8.70;72.05;99526.00;5417337;32;33251;-78
2023/01/16 04:44:12;;;;;;;;;;;;;;;9.19;68.60;99517.56;5408085;32;34041;-78
2023/01/16 04:47:14;;;;;;;;;;;;;;;8.99;68.67;99530.75;5406670;32;34476;-77
2023/01/16 04:50:16;;;;;;;;;;;;;;;8.84;69.89;99513.13;5419206;32;35806;-77
2023/01/16 04:53:18;;;;;;;;;;;;;;;7.91;72.96;99514.56;5389690;32;32665;-77
2023/01/16 04:56:20;;;;;;;;;;;;;;;8.55;72.33;99507.41;5396470;32;34502;-78
2023/01/16 04:59:22;;;;;;;;;;;;;;;8.72;71.04;99501.44;5412357;32;33646;-77
2023/01/16 05:02:24;;;;;;;;;;;;;;;8.02;73.72;99497.50;5410186;32;34359;-79
2023/01/16 05:05:29;;;;;;;;;;;;;;;8.54;71.39;99497.84;5389711;32;33663;-78
2023/01/16 05:08:30;;;;;;;;;;;;;;;8.76;71.33;99489.91;5405720;32;33026;-79
2023/01/16 05:11:33;;;;;;;;;;;;;;;8.57;71.54;99499.50;5397304;32;34417;-78
2023/01/16 05:14:35;;;;;;;;;;;;;;;8.82;70.93;99489.63;5404602;32;34481;-77
2023/01/16 05:17:37;;;;;;;;;;;;;;;8.39;71.72;99488.94;5415420;32;34290;-78
2023/01/16 05:20:39;;;;;;;;;;;;;;;8.27;73.21;99480.72;5411222;32;33375;-79
2023/01/16 05:23:41;;;;;;;;;;;;;;;8.47;72.57;99478.09;5399623;32;35337;-78
2023/01/16 05:26:43;;;;;;;;;;;;;;;8.47;72.54;99477.25;5405110;32;33806;-78
2023/01/16 05:29:45;;;;;;;;;;;;;;;8.71;71.71;99480.53;5396081;32;34039;-77
2023/01/16 05:32:47;;;;;;;;;;;;;;;9.16;69.58;99483.63;5414783;32;45232;-78
2023/01/16 05:35:49;;;;;;;;;;;;;;;9.11;68.45;99466.41;5374539;32;33583;-77
2023/01/16 05:38:50;;;;;;;;;;;;;;;7.82;73.96;99481.78;5407530;32;33444;-77
2023/01/16 05:41:52;;;;;;;;;;;;;;;7.50;75.63;99483.13;5386916;32;33138;-78
2023/01/16 05:44:54;;;;;;;;;;;;;;;7.41;77.00;99483.50;5422688;32;34267;-78
2023/01/16 05:47:56;;;;;;;;;;;;;;;7.11;78.37;99493.41;5410000;32;33032;-78
2023/01/16 05:51:00;;;;;;;;;;;;;;;8.15;73.62;99492.56;5377061;32;33177;-77
2023/01/16 05:54:02;;;;;;;;;;;;;;;7.14;77.49;99482.81;5408709;32;33826;-79
2023/01/16 05:57:04;;;;;;;;;;;;;;;8.03;74.63;99480.88;5381944;32;33588;-79
2023/01/16 06:00:07;;;;;;;;;;;;;;;8.09;74.43;99488.47;5425263;32;33539;-78
2023/01/16 06:03:09;;;;;;;;;;;;;;;7.75;75.80;99491.66;5402731;32;33288;-77
2023/01/16 06:06:11;;;;;;;;;;;;;;;8.82;71.43;99479.12;5413658;32;34248;-76
2023/01/16 06:09:13;;;;;;;;;;;;;;;9.30;67.88;99484.75;5401937;32;33104;-77
2023/01/16 06:12:15;;;;;;;;;;;;;;;8.77;70.00;99482.87;5401149;32;34494;-77
2023/01/16 06:15:17;;;;;;;;;;;;;;;7.66;74.16;99486.78;5409551;32;45011;-78
2023/01/16 06:18:19;;;;;;;;;;;;;;;7.73;74.00;99483.03;5397115;32;33218;-78
2023/01/16 06:21:21;;;;;;;;;;;;;;;7.99;74.33;99488.94;5407776;32;33823;-77
2023/01/16 06:24:23;;;;;;;;;;;;;;;7.49;74.67;99489.28;5407095;32;33387;-78
2023/01/16 06:27:25;;;;;;;;;;;;;;;7.32;75.74;99496.03;5415103;32;33484;-79
2023/01/16 06:30:27;;;;;;;;;;;;;;;6.49;79.55;99489.66;5412053;32;34685;-77
2023/01/16 06:33:29;;;;;;;;;;;;;;;6.85;78.32;99468.28;5401654;32;34023;-77
2023/01/16 06:36:32;;;;;;;;;;;;;;;7.13;77.22;99473.28;5408566;32;34319;-77
2023/01/16 06:39:34;;;;;;;;;;;;;;;7.65;75.36;99461.56;5405376;32;34387;-78
2023/01/16 06:42:36;;;;;;;;;;;;;;;7.56;75.36;99460.19;5400771;32;33919;-77
2023/01/16 06:45:38;;;;;;;;;;;;;;;7.86;72.37;99459.84;5395736;32;33676;-77
2023/01/16 06:48:41;;;;;;;;;;;;;;;8.28;70.82;99456.25;5400854;32;34768;-76
2023/01/16 06:51:43;;;;;;;;;;;;;;;7.79;73.22;99448.78;5388743;32;33357;-71
2023/01/16 06:54:45;;;;;;;;;;;;;;;7.64;75.17;99454.63;5400034;32;33806;-73
2023/01/16 06:57:48;;;;;;;;;;;;;;;8.47;70.63;99451.91;5415378;32;46126;-82
2023/01/16 07:00:50;;;;;;;;;;;;;;;8.51;70.89;99453.50;5404796;32;34449;-74
2023/01/16 07:03:53;;;;;;;;;;;;;;;8.29;69.49;99450.09;5416564;32;32222;-72
2023/01/16 07:06:55;;;;;;;;;;;;;;;8.08;71.81;99462.34;5401584;32;32987;-85
2023/01/16 07:10:00;;;;;;;;;;;;;;;8.94;68.02;99456.72;5402272;32;34176;-81
2023/01/16 07:13:02;;;;;;;;;;;;;;;8.56;67.95;99451.47;5399620;32;35185;-72
2023/01/16 07:22:45;;;;;;;;;;;;;;;8.39;69.24;99460.13;5404508;32;31731;-76
2023/01/16 07:25:52;;;;;;;;;;;;;;;8.00;71.90;99462.69;5414166;32;44493;-76
2023/01/16 07:28:54;;;;;;;;;;;;;;;8.49;68.74;99452.69;5406553;32;33180;-82
2023/01/16 07:31:56;;;;;;;;;;;;;;;6.98;75.13;99456.47;5404204;32;34256;-71
2023/01/16 07:34:58;;;;;;;;;;;;;;;7.26;75.44;99448.38;5417244;32;32861;-76
2023/01/16 07:38:00;;;;;;;;;;;;;;;7.56;73.88;99446.28;5393904;32;33140;-70
2023/01/16 07:41:02;;;;;;;;;;;;;;;7.77;73.32;99442.75;5414991;32;32904;-74
2023/01/16 07:44:06;;;;;;;;;;;;;;;8.09;72.92;99443.13;5405120;32;34447;-75
2023/01/16 07:47:08;;;;;;;;;;;;;;;7.51;73.52;99422.06;5415151;32;32877;-71
2023/01/16 07:50:10;;;;;;;;;;;;;;;7.68;73.59;99423.97;5386685;32;34599;-72
2023/01/16 07:53:12;;;;;;;;;;;;;;;7.13;74.68;99415.81;5378445;32;35482;-72
2023/01/16 07:56:14;;;;;;;;;;;;;;;6.58;77.89;99410.16;5398393;32;33025;-73
2023/01/16 07:59:19;;;;;;;;;;;;;;;7.26;76.08;99409.16;5402490;32;34666;-71
2023/01/16 08:02:24;;;;;;;;;;;;;;;8.14;72.46;99394.03;5401208;32;34304;-75
2023/01/16 08:05:27;;;;;;;;;;;;;;;6.96;76.79;99392.97;5406896;32;33370;-69
2023/01/16 08:08:29;;;;;;;;;;;;;;;6.65;78.14;99390.72;5397958;32;34820;-68
2023/01/16 08:11:38;;;;;;;;;;;;;;;7.62;74.60;99382.41;5399063;32;33161;-69
2023/01/16 08:14:40;;;;;;;;;;;;;;;6.61;77.01;99378.69;5402031;32;33424;-75
2023/01/16 08:17:44;;;;;;;;;;;;;;;6.55;78.30;99361.50;5417945;32;32981;-77
2023/01/16 08:20:47;;;;;;;;;;;;;;;7.37;75.83;99352.06;5408160;32;44467;-68
2023/01/16 08:23:49;;;;;;;;;;;;;;;6.96;77.08;99330.28;5406468;32;35689;-71
2023/01/16 08:26:51;;;;;;;;;;;;;;;7.15;75.68;99343.41;5393033;32;34281;-78
2023/01/16 08:29:53;;;;;;;;;;;;;;;7.57;73.83;99341.59;5406577;32;33569;-75
2023/01/16 08:33:01;;;;;;;;;;;;;;;8.70;68.71;99309.41;5403736;32;32979;-76
2023/01/16 08:36:04;;;;;;;;;;;;;;;8.45;69.42;99328.06;5407442;32;33387;-73
2023/01/16 08:39:07;;;;;;;;;;;;;;;7.42;72.57;99328.34;5400403;32;33297;-73
2023/01/16 08:52:15;;;;;;;;;;;;;;;6.64;75.83;99302.88;5390622;32;32523;-81
2023/01/16 08:55:17;;;;;;;;;;;;;;;7.80;73.05;99282.22;5416271;32;45142;-72
2023/01/16 08:58:21;;;;;;;;;;;;;;;7.57;73.08;99280.59;5395335;32;33839;-72
2023/01/16 09:01:23;;;;;;;;;;;;;;;7.42;72.94;99279.53;5407083;32;33075;-79
2023/01/16 09:04:25;;;;;;;;;;;;;;;6.75;74.44;99272.78;5400643;32;34249;-79
2023/01/16 09:07:28;;;;;;;;;;;;;;;8.38;69.37;99254.19;5400808;32;33895;-72
2023/01/16 09:10:30;;;;;;;;;;;;;;;7.64;72.11;99255.03;5413609;32;34060;-74
2023/01/16 09:13:51;;;;;;;;;;;;;;;7.14;74.23;99239.81;5390126;32;33049;-79
2023/01/16 09:16:53;;;;;;;;;;;;;;;7.90;70.79;99231.16;5406921;32;44646;-77
2023/01/16 09:19:55;;;;;;;;;;;;;;;8.38;68.78;99227.19;5406953;32;34823;-83
2023/01/16 09:22:58;;;;;;;;;;;;;;;7.64;71.70;99216.66;5398180;32;34430;-72
2023/01/16 09:26:01;;;;;;;;;;;;;;;8.35;68.88;99211.56;5416560;32;33437;-74
2023/01/16 09:29:03;;;;;;;;;;;;;;;7.90;71.67;99202.38;5400309;32;34313;-73
2023/01/16 09:32:08;;;;;;;;;;;;;;;8.44;68.88;99198.06;5387776;32;32819;-85
2023/01/16 09:35:11;;;;;;;;;;;;;;;8.28;68.34;99177.00;5403185;32;34571;-84
2023/01/16 09:38:14;;;;;;;;;;;;;;;7.89;72.82;99182.38;5407958;32;33660;-81
2023/01/16 09:43:35;;;;;;;;;;;;;;;8.32;69.33;99169.84;5410070;32;33308;-81
2023/01/16 09:44:39;;;;;;;;;;;;;;;8.13;71.55;99168.13;5400421;32;33042;-71
2023/01/16 09:47:44;;;;;;;;;;;;;;;7.71;71.98;99146.59;5392583;32;33970;-76
2023/01/16 09:50:51;;;;;;;;;;;;;;;8.11;72.38;99128.09;5395592;32;33923;-77
2023/01/16 10:01:03;;;;;;;;;;;;;;;8.87;67.86;99110.28;5358889;32;35422;-70
2023/01/16 10:04:15;;;;;;;;;;;;;;;8.63;67.86;99106.31;5417221;32;36055;-73
2023/01/16 10:07:21;;;;;;;;;;;;;;;8.32;69.15;99109.63;5403362;32;44696;-75
2023/01/16 10:10:29;;;;;;;;;;;;;;;7.58;72.22;99101.87;5398163;32;32216;-71
2023/01/16 10:13:36;;;;;;;;;;;;;;;8.03;70.62;99090.97;5402378;32;34797;-76
2023/01/16 10:16:44;;;;;;;;;;;;;;;7.21;74.01;99089.66;5402859;32;33059;-76
2023/01/16 10:19:51;;;;;;;;;;;;;;;7.44;73.67;99089.47;5416014;32;44719;-76
2023/01/16 10:22:54;;;;;;;;;;;;;;;7.48;71.54;99084.94;5400897;32;33005;-77
2023/01/16 10:25:56;;;;;;;;;;;;;;;7.85;71.15;99066.53;5418845;32;33935;-81
2023/01/16 10:29:18;;;;;;;;;;;;;;;6.47;75.98;99058.16;5386415;32;33082;-72
2023/01/16 10:32:24;;;;;;;;;;;;;;;8.14;70.91;99051.19;5392483;32;45064;-69
2023/01/16 10:35:31;;;;;;;;;;;;;;;8.61;68.75;99038.31;5418861;32;33131;-84
2023/01/16 10:38:45;;;;;;;;;;;;;;;8.57;68.23;99023.69;5403141;32;35851;-86
2023/01/16 10:51:55;;;;;;;;;;;;;;;7.86;72.05;99015.94;5392066;32;47092;-75
2023/01/16 10:54:57;;;;;;;;;;;;;;;8.71;67.91;98998.53;5397527;32;34210;-75
2023/01/16 10:58:02;;;;;;;;;;;;;;;8.07;68.67;98985.25;5407147;32;34732;-71
2023/01/16 11:01:14;;;;;;;;;;;;;;;8.24;68.55;98993.97;5409134;32;33683;-75
2023/01/16 11:04:17;;;;;;;;;;;;;;;7.42;72.75;98971.06;5388242;32;43529;-73
2023/01/16 11:07:20;;;;;;;;;;;;;;;8.80;67.67;98967.44;5414440;32;33087;-75
2023/01/16 11:10:22;;;;;;;;;;;;;;;8.95;66.83;98950.91;5401921;32;34654;-76
2023/01/16 11:20:16;;;;;;;;;;;;;;;8.77;67.53;98936.19;5381114;32;34339;-77
2023/01/16 11:23:20;;;;;;;;;;;;;;;8.82;66.80;98928.94;5404918;32;45158;-81
2023/01/16 11:26:22;;;;;;;;;;;;;;;8.71;66.59;98926.03;5401567;32;33129;-69
2023/01/16 11:29:26;;;;;;;;;;;;;;;8.63;66.99;98922.97;5417657;32;35875;-68
2023/01/16 11:32:29;;;;;;;;;;;;;;;8.23;68.15;98909.38;5408199;32;32930;-80
2023/01/16 11:35:32;;;;;;;;;;;;;;;7.96;70.32;98897.75;5412054;32;34120;-75
2023/01/16 11:38:35;;;;;;;;;;;;;;;7.73;72.43;98904.16;5414208;32;33048;-68
2023/01/16 11:41:37;;;;;;;;;;;;;;;8.04;70.63;98891.19;5410056;32;33445;-80
2023/01/16 11:48:02;;;;;;;;;;;;;;;8.96;67.40;98888.84;5400503;32;33367;-73
2023/01/16 11:51:04;;;;;;;;;;;;;;;8.44;68.40;98870.78;5405755;32;33072;-79
2023/01/16 11:54:14;;;;;;;;;;;;;;;8.79;68.21;98868.00;5399828;32;32935;-72
2023/01/16 11:57:22;;;;;;;;;;;;;;;8.41;68.62;98860.47;5409299;32;46240;-73
2023/01/16 12:00:28;;;;;;;;;;;;;;;8.21;69.21;98850.19;5418714;32;33703;-79
2023/01/16 12:03:40;;;;;;;;;;;;;;;7.82;73.47;98847.00;5411281;32;34105;-79
2023/01/16 12:07:05;;;;;;;;;;;;;;;8.44;70.09;98838.50;5412205;32;33803;-80
2023/01/16 12:10:26;;;;;;;;;;;;;;;8.44;69.23;98814.94;5399596;32;33306;-78
2023/01/16 12:17:10;;;;;;;;;;;;;;;8.10;71.14;98804.50;5418507;32;33139;-73
2023/01/16 12:20:20;;;;;;;;;;;;;;;8.38;69.63;98797.81;5417647;32;33242;-74
2023/01/16 12:23:21;;;;;;;;;;;;;;;8.62;68.64;98778.09;5392280;32;43211;-77
2023/01/16 12:26:30;;;;;;;;;;;;;;;7.89;71.74;98779.50;5418263;32;34958;-77
2023/01/16 12:29:52;;;;;;;;;;;;;;;8.04;71.54;98765.59;5389745;32;34217;-76
2023/01/16 12:33:21;;;;;;;;;;;;;;;8.11;71.18;98779.19;5405674;32;44603;-75
2023/01/16 12:36:27;;;;;;;;;;;;;;;7.92;72.03;98763.66;5408916;32;46349;-77
2023/01/16 12:39:49;;;;;;;;;;;;;;;7.69;72.96;98756.19;5409594;32;33102;-73
2023/01/16 12:46:36;;;;;;;;;;;;;;;7.85;73.17;98749.19;5398919;32;33278;-76
2023/01/16 12:49:47;;;;;;;;;;;;;;;8.01;72.09;98737.00;5397310;32;33185;-74
2023/01/16 12:52:49;;;;;;;;;;;;;;;7.65;74.84;98729.34;5392003;32;44656;-85
2023/01/16 12:55:52;;;;;;;;;;;;;;;7.16;76.86;98725.88;5386492;32;33032;-84
2023/01/16 12:59:17;;;;;;;;;;;;;;;7.24;75.62;98719.31;5405100;32;33565;-74
2023/01/16 13:02:26;;;;;;;;;;;;;;;7.31;76.34;98714.59;5401657;32;47172;-77
2023/01/16 13:05:32;;;;;;;;;;;;;;;7.75;74.94;98725.31;5405775;32;34582;-72
2023/01/16 13:08:42;;;;;;;;;;;;;;;6.97;78.38;98724.19;5413478;32;34327;-76
2023/01/16 13:15:13;;;;;;;;;;;;;;;8.03;73.41;98710.72;5404156;32;34254;-77
2023/01/16 13:18:19;;;;;;;;;;;;;;;8.02;72.51;98696.81;5405168;32;33176;-76
2023/01/16 13:21:28;;;;;;;;;;;;;;;8.52;70.28;98687.91;5380761;32;45575;-82
2023/01/16 13:24:31;;;;;;;;;;;;;;;7.77;71.91;98684.22;5382212;32;34482;-77
2023/01/16 13:27:38;;;;;;;;;;;;;;;8.05;71.97;98675.72;5405265;32;31342;-81
2023/01/16 13:30:40;;;;;;;;;;;;;;;7.89;71.67;98682.72;5413760;32;32963;-70
2023/01/16 13:33:42;;;;;;;;;;;;;;;8.34;70.47;98676.69;5397474;32;32903;-80
2023/01/16 13:37:14;;;;;;;;;;;;;;;8.09;70.71;98676.38;5419354;32;32986;-72
2023/01/16 13:40:22;;;;;;;;;;;;;;;8.28;69.33;98677.03;5366601;32;33395;-67
2023/01/16 13:46:52;;;;;;;;;;;;;;;8.13;71.24;98676.13;5422326;32;44526;-85
2023/01/16 13:49:54;;;;;;;;;;;;;;;8.33;69.52;98679.41;5398146;32;33668;-70
2023/01/16 13:53:00;;;;;;;;;;;;;;;8.15;68.28;98683.88;5389259;32;32960;-73
2023/01/16 13:56:15;;;;;;;;;;;;;;;8.07;69.79;98675.63;5415602;32;33037;-71
2023/01/16 13:59:37;;;;;;;;;;;;;;;8.29;68.05;98673.47;5391113;32;45778;-80
2023/01/16 14:02:41;;;;;;;;;;;;;;;8.14;68.17;98664.72;5405336;32;32930;-77
2023/01/16 14:05:44;;;;;;;;;;;;;;;8.24;69.21;98662.41;5392972;32;34731;-76
2023/01/16 14:09:04;;;;;;;;;;;;;;;8.52;68.18;98659.09;5413993;32;32902;-82
2023/01/16 14:12:12;;;;;;;;;;;;;;;8.28;69.19;98650.00;5422343;32;33539;-77
2023/01/16 14:18:37;;;;;;;;;;;;;;;8.44;67.68;98645.63;5418569;32;33882;-78
2023/01/16 14:24:00;;;;;;;;;;;;;;;8.30;68.48;98637.66;5404501;32;33101;-75
2023/01/16 14:25:03;;;;;;;;;;;;;;;8.40;68.39;98633.62;5400026;32;33143;-76
2023/01/16 14:28:05;;;;;;;;;;;;;;;8.35;67.22;98625.16;5402266;32;33240;-74
2023/01/16 14:31:16;;;;;;;;;;;;;;;8.40;68.88;98617.94;5407132;32;33736;-68
2023/01/16 14:34:22;;;;;;;;;;;;;;;8.15;69.07;98605.38;5404128;32;45071;-79
2023/01/16 14:37:42;;;;;;;;;;;;;;;8.41;68.34;98603.91;5390814;32;33062;-80
2023/01/16 14:57:52;;;;;;;;;;;;;;;7.77;71.31;98576.16;5408439;32;43260;-72
2023/01/16 15:04:32;;;;;;;;;;;;;;;7.95;71.54;98567.28;5409541;32;31999;-77
2023/01/16 15:07:37;;;;;;;;;;;;;;;7.65;72.81;98562.00;5413228;32;34862;-86
2023/01/16 15:10:39;;;;;;;;;;;;;;;8.29;70.83;98555.69;5417968;32;35723;-73
2023/01/16 15:23:47;;;;;;;;;;;;;;;7.56;74.72;98536.38;5388164;32;46229;-77
2023/01/16 15:26:57;;;;;;;;;;;;;;;7.50;74.77;98532.34;5404621;32;32867;-80
2023/01/16 15:30:01;;;;;;;;;;;;;;;8.45;69.91;98521.66;5385967;32;32893;-79
2023/01/16 15:36:40;;;;;;;;;;;;;;;8.33;69.98;98507.47;5396865;32;45225;-77
2023/01/16 15:39:45;;;;;;;;;;;;;;;8.35;69.92;98516.09;5409022;32;33323;-82
2023/01/16 15:46:35;;;;;;;;;;;;;;;8.36;70.17;98516.94;5389178;32;32665;-72
2023/01/16 15:49:50;;;;;;;;;;;;;;;8.07;71.44;98503.78;5397717;32;33175;-77
2023/01/16 15:52:52;;;;;;;;;;;;;;;8.40;69.95;98492.28;5394984;32;42999;-74
2023/01/16 15:56:00;;;;;;;;;;;;;;;8.44;70.29;98496.41;5399366;32;33067;-78
2023/01/16 15:59:03;;;;;;;;;;;;;;;8.13;70.81;98497.34;5405838;32;34334;-78
2023/01/16 16:02:13;;;;;;;;;;;;;;;8.26;71.05;98484.37;5402750;32;34592;-80
2023/01/16 16:05:15;;;;;;;;;;;;;;;8.27;71.17;98502.59;5413489;32;32932;-81
2023/01/16 16:08:22;;;;;;;;;;;;;;;7.39;75.22;98500.72;5410778;32;42968;-80
2023/01/16 16:18:13;;;;;;;;;;;;;;;8.52;70.05;98485.47;5405225;32;33234;-74
2023/01/16 16:21:15;;;;;;;;;;;;;;;8.40;70.58;98487.03;5400917;32;33347;-80
2023/01/16 16:24:18;;;;;;;;;;;;;;;7.89;73.07;98476.06;5403813;32;44624;-76
2023/01/16 16:27:20;;;;;;;;;;;;;;;8.11;72.81;98473.91;5401470;32;34000;-75
2023/01/16 16:30:23;;;;;;;;;;;;;;;8.19;72.34;98476.06;5403925;32;33092;-73
2023/01/16 16:33:25;;;;;;;;;;;;;;;8.43;71.52;98465.06;5392598;32;34169;-73
2023/01/16 16:36:27;;;;;;;;;;;;;;;8.06;73.79;98464.62;5412714;32;33034;-75
2023/01/16 16:39:42;;;;;;;;;;;;;;;8.02;72.36;98450.88;5407730;32;33793;-78
2023/01/16 16:42:52;;;;;;;;;;;;;;;8.21;72.72;98452.41;5370055;32;991367;-74
2023/01/16 16:45:59;;;;;;;;;;;;;;;8.40;71.84;98434.69;5409920;32;34006;-77
2023/01/16 16:49:07;;;;;;;;;;;;;;;8.49;71.89;98426.25;5385556;32;33451;-83
2023/01/16 16:52:41;;;;;;;;;;;;;;;8.22;73.35;98430.53;5382756;32;33557;-84
2023/01/16 16:55:47;;;;;;;;;;;;;;;8.29;72.20;98429.22;5392069;32;32972;-83
2023/01/16 16:58:50;;;;;;;;;;;;;;;7.25;77.60;98436.16;5405422;32;45791;-81
2023/01/16 17:02:09;;;;;;;;;;;;;;;8.43;74.10;98421.38;5416601;32;33780;-83
2023/01/16 17:05:11;;;;;;;;;;;;;;;8.38;72.75;98408.59;5399937;32;34213;-84
2023/01/16 17:08:19;;;;;;;;;;;;;;;8.47;72.86;98412.44;5411380;32;33561;-84
2023/01/16 17:11:21;;;;;;;;;;;;;;;8.41;73.12;98425.88;5399561;32;43185;-80
2023/01/16 17:14:23;;;;;;;;;;;;;;;8.21;73.42;98427.06;5404398;32;33087;-79
2023/01/16 17:17:25;;;;;;;;;;;;;;;8.42;73.97;98411.84;5385880;32;33492;-81
2023/01/16 17:20:27;;;;;;;;;;;;;;;6.99;79.53;98421.97;5386656;32;32934;-85
2023/01/16 17:23:31;;;;;;;;;;;;;;;7.80;76.04;98408.63;5414021;32;33607;-78
2023/01/16 17:26:34;;;;;;;;;;;;;;;8.27;75.25;98418.84;5407773;32;33879;-84
2023/01/16 17:29:42;;;;;;;;;;;;;;;8.23;73.20;98422.56;5415236;32;35061;-85
2023/01/16 17:32:44;;;;;;;;;;;;;;;7.87;75.31;98429.09;5405849;32;33539;-79
2023/01/16 17:35:47;;;;;;;;;;;;;;;8.30;73.24;98423.87;5391202;32;45267;-80
2023/01/16 17:38:49;;;;;;;;;;;;;;;9.04;70.39;98417.56;5414351;32;34034;-80
2023/01/16 17:48:15;;;;;;;;;;;;;;;8.64;71.52;98434.97;5408034;32;34287;-79
2023/01/16 17:51:23;;;;;;;;;;;;;;;8.26;72.97;98438.09;5386934;32;44497;-84
2023/01/16 17:57:46;;;;;;;;;;;;;;;8.22;72.27;98414.81;5405982;32;34323;-79
2023/01/16 18:00:51;;;;;;;;;;;;;;;8.18;73.16;98398.50;5405569;32;45145;-86
2023/01/16 18:04:03;;;;;;;;;;;;;;;7.71;74.20;98409.16;5409862;32;32799;-79
2023/01/16 18:07:06;;;;;;;;;;;;;;;7.91;75.84;98397.50;5421519;32;32900;-79
2023/01/16 18:10:09;;;;;;;;;;;;;;;7.34;77.10;98398.22;5399033;32;33722;-84
2023/01/16 18:19:56;;;;;;;;;;;;;;;8.36;73.96;98378.22;5415875;32;45433;-79
2023/01/16 18:22:58;;;;;;;;;;;;;;;7.84;73.25;98376.13;5424598;32;34040;-87
2023/01/16 18:26:00;;;;;;;;;;;;;;;8.16;74.15;98374.16;5402498;32;34707;-79
2023/01/16 18:29:02;;;;;;;;;;;;;;;8.30;73.52;98361.06;5417660;32;31373;-86